sensor_id;sensor_type;location;lat;lon;timestamp;pressure;altitude;pressure_sealevel;temperature
72236;BMP280;60146;52.498;13.462;2024-02-16T00:00:12;92397.63;;;11.54
72236;BMP280;60146;52.498;13.462;2024-02-16T00:02:38;92365.06;;;11.50
72236;BMP280;60146;52.498;13.462;2024-02-16T00:05:06;92312.50;;;11.48
72236;BMP280;60146;52.498;13.462;2024-02-16T00:07:33;92274.44;;;11.47
72236;BMP280;60146;52.498;13.462;2024-02-16T00:09:58;92220.59;;;11.57
72236;BMP280;60146;52.498;13.462;2024-02-16T00:12:24;92251.88;;;11.44
72236;BMP280;60146;52.498;13.462;2024-02-16T00:14:49;92229.75;;;11.45
72236;BMP280;60146;52.498;13.462;2024-02-16T00:17:14;92223.34;;;11.40
72236;BMP280;60146;52.498;13.462;2024-02-16T00:19:40;92218.44;;;11.32
72236;BMP280;60146;52.498;13.462;2024-02-16T00:22:05;92159.91;;;11.35
72236;BMP280;60146;52.498;13.462;2024-02-16T00:24:33;92127.38;;;11.30
72236;BMP280;60146;52.498;13.462;2024-02-16T00:26:59;92106.00;;;11.26
72236;BMP280;60146;52.498;13.462;2024-02-16T00:29:25;92069.19;;;11.24
72236;BMP280;60146;52.498;13.462;2024-02-16T00:31:50;92026.38;;;11.22
72236;BMP280;60146;52.498;13.462;2024-02-16T00:34:15;91981.69;;;11.20
72236;BMP280;60146;52.498;13.462;2024-02-16T00:36:41;91925.59;;;11.21
72236;BMP280;60146;52.498;13.462;2024-02-16T00:39:06;91878.19;;;11.30
72236;BMP280;60146;52.498;13.462;2024-02-16T00:41:31;91935.88;;;11.14
72236;BMP280;60146;52.498;13.462;2024-02-16T00:43:57;91949.53;;;11.07
72236;BMP280;60146;52.498;13.462;2024-02-16T00:46:22;91901.50;;;11.10
72236;BMP280;60146;52.498;13.462;2024-02-16T00:48:51;91893.50;;;11.02
72236;BMP280;60146;52.498;13.462;2024-02-16T00:51:17;91828.56;;;11.06
72236;BMP280;60146;52.498;13.462;2024-02-16T00:53:42;91791.97;;;11.06
72236;BMP280;60146;52.498;13.462;2024-02-16T00:56:08;91794.34;;;11.04
72236;BMP280;60146;52.498;13.462;2024-02-16T00:58:33;91735.69;;;11.18
72236;BMP280;60146;52.498;13.462;2024-02-16T01:00:59;91758.19;;;11.08
72236;BMP280;60146;52.498;13.462;2024-02-16T01:03:24;91748.09;;;11.17
72236;BMP280;60146;52.498;13.462;2024-02-16T01:05:52;91801.13;;;11.13
72236;BMP280;60146;52.498;13.462;2024-02-16T01:08:17;91788.84;;;11.26
72236;BMP280;60146;52.498;13.462;2024-02-16T01:10:43;91905.53;;;11.11
72236;BMP280;60146;52.498;13.462;2024-02-16T01:13:08;91942.19;;;11.05
72236;BMP280;60146;52.498;13.462;2024-02-16T01:15:33;91960.75;;;11.02
72236;BMP280;60146;52.498;13.462;2024-02-16T01:17:59;91935.03;;;11.06
72236;BMP280;60146;52.498;13.462;2024-02-16T01:20:25;91954.81;;;11.01
72236;BMP280;60146;52.498;13.462;2024-02-16T01:22:51;91981.72;;;10.96
72236;BMP280;60146;52.498;13.462;2024-02-16T01:25:16;91948.81;;;11.06
72236;BMP280;60146;52.498;13.462;2024-02-16T01:27:42;91991.25;;;10.94
72236;BMP280;60146;52.498;13.462;2024-02-16T01:30:07;91978.34;;;11.01
72236;BMP280;60146;52.498;13.462;2024-02-16T01:32:33;92020.47;;;10.93
72236;BMP280;60146;52.498;13.462;2024-02-16T01:35:00;92044.94;;;10.95
72236;BMP280;60146;52.498;13.462;2024-02-16T01:37:25;92052.81;;;10.90
72236;BMP280;60146;52.498;13.462;2024-02-16T01:39:50;92049.72;;;10.91
72236;BMP280;60146;52.498;13.462;2024-02-16T01:42:16;92060.88;;;10.92
72236;BMP280;60146;52.498;13.462;2024-02-16T01:44:41;92059.91;;;10.95
72236;BMP280;60146;52.498;13.462;2024-02-16T01:47:06;92090.88;;;10.85
72236;BMP280;60146;52.498;13.462;2024-02-16T01:49:32;92097.06;;;10.88
72236;BMP280;60146;52.498;13.462;2024-02-16T01:51:58;92074.44;;;10.96
72236;BMP280;60146;52.498;13.462;2024-02-16T01:54:23;92130.38;;;10.82
72236;BMP280;60146;52.498;13.462;2024-02-16T01:56:49;92116.56;;;10.87
72236;BMP280;60146;52.498;13.462;2024-02-16T01:59:16;92121.22;;;10.94
72236;BMP280;60146;52.498;13.462;2024-02-16T02:01:42;92155.00;;;10.92
72236;BMP280;60146;52.498;13.462;2024-02-16T02:04:07;92195.41;;;10.85
72236;BMP280;60146;52.498;13.462;2024-02-16T02:06:32;92250.84;;;10.73
72236;BMP280;60146;52.498;13.462;2024-02-16T02:08:58;92216.88;;;10.73
72236;BMP280;60146;52.498;13.462;2024-02-16T02:11:23;92166.53;;;10.73
72236;BMP280;60146;52.498;13.462;2024-02-16T02:13:48;92132.03;;;10.79
72236;BMP280;60146;52.498;13.462;2024-02-16T02:16:15;92139.41;;;10.81
72236;BMP280;60146;52.498;13.462;2024-02-16T02:18:40;92156.28;;;10.80
72236;BMP280;60146;52.498;13.462;2024-02-16T02:21:05;92174.09;;;10.76
72236;BMP280;60146;52.498;13.462;2024-02-16T02:23:31;92182.19;;;10.78
72236;BMP280;60146;52.498;13.462;2024-02-16T02:25:56;92189.06;;;10.75
72236;BMP280;60146;52.498;13.462;2024-02-16T02:28:22;92174.56;;;10.80
72236;BMP280;60146;52.498;13.462;2024-02-16T02:30:49;92210.94;;;10.73
72236;BMP280;60146;52.498;13.462;2024-02-16T02:33:14;92183.59;;;10.79
72236;BMP280;60146;52.498;13.462;2024-02-16T02:35:39;92190.50;;;10.76
72236;BMP280;60146;52.498;13.462;2024-02-16T02:38:05;92224.03;;;10.73
72236;BMP280;60146;52.498;13.462;2024-02-16T02:40:31;92227.09;;;10.71
72236;BMP280;60146;52.498;13.462;2024-02-16T02:42:57;92226.16;;;10.74
72236;BMP280;60146;52.498;13.462;2024-02-16T02:45:23;92264.66;;;10.68
72236;BMP280;60146;52.498;13.462;2024-02-16T02:47:48;92259.88;;;10.77
72236;BMP280;60146;52.498;13.462;2024-02-16T02:50:14;92317.88;;;10.65
72236;BMP280;60146;52.498;13.462;2024-02-16T02:52:39;92330.94;;;10.65
72236;BMP280;60146;52.498;13.462;2024-02-16T02:55:05;92312.16;;;10.67
72236;BMP280;60146;52.498;13.462;2024-02-16T02:57:30;92316.94;;;10.63
72236;BMP280;60146;52.498;13.462;2024-02-16T03:00:06;92296.03;;;10.63
72236;BMP280;60146;52.498;13.462;2024-02-16T03:02:35;92225.91;;;10.77
72236;BMP280;60146;52.498;13.462;2024-02-16T03:05:02;92305.28;;;10.69
72236;BMP280;60146;52.498;13.462;2024-02-16T03:07:27;92320.72;;;10.73
72236;BMP280;60146;52.498;13.462;2024-02-16T03:09:53;92356.09;;;10.79
72236;BMP280;60146;52.498;13.462;2024-02-16T03:12:18;92429.06;;;10.72
72236;BMP280;60146;52.498;13.462;2024-02-16T03:14:43;92446.88;;;10.68
72236;BMP280;60146;52.498;13.462;2024-02-16T03:17:09;92464.44;;;10.73
72236;BMP280;60146;52.498;13.462;2024-02-16T03:19:34;92476.09;;;10.72
72236;BMP280;60146;52.498;13.462;2024-02-16T03:22:00;92473.94;;;10.81
72236;BMP280;60146;52.498;13.462;2024-02-16T03:24:25;92552.84;;;10.79
72236;BMP280;60146;52.498;13.462;2024-02-16T03:26:50;92600.09;;;10.76
72236;BMP280;60146;52.498;13.462;2024-02-16T03:29:16;92577.53;;;10.84
72236;BMP280;60146;52.498;13.462;2024-02-16T03:31:41;92636.28;;;10.88
72236;BMP280;60146;52.498;13.462;2024-02-16T03:34:06;92708.94;;;10.84
72236;BMP280;60146;52.498;13.462;2024-02-16T03:36:32;92761.00;;;10.77
72236;BMP280;60146;52.498;13.462;2024-02-16T03:38:58;92787.84;;;10.77
72236;BMP280;60146;52.498;13.462;2024-02-16T03:41:23;92811.63;;;10.79
72236;BMP280;60146;52.498;13.462;2024-02-16T03:43:49;92835.13;;;10.74
72236;BMP280;60146;52.498;13.462;2024-02-16T03:46:15;92851.31;;;10.78
72236;BMP280;60146;52.498;13.462;2024-02-16T03:48:40;92888.31;;;10.71
72236;BMP280;60146;52.498;13.462;2024-02-16T03:51:06;92855.31;;;10.74
72236;BMP280;60146;52.498;13.462;2024-02-16T03:53:32;92858.66;;;10.74
72236;BMP280;60146;52.498;13.462;2024-02-16T03:55:57;92885.72;;;10.71
72236;BMP280;60146;52.498;13.462;2024-02-16T03:58:24;92931.31;;;10.70
72236;BMP280;60146;52.498;13.462;2024-02-16T04:00:49;92949.13;;;10.66
72236;BMP280;60146;52.498;13.462;2024-02-16T04:03:16;92962.19;;;10.66
72236;BMP280;60146;52.498;13.462;2024-02-16T04:05:42;92958.59;;;10.58
72236;BMP280;60146;52.498;13.462;2024-02-16T04:08:07;92921.03;;;10.61
72236;BMP280;60146;52.498;13.462;2024-02-16T04:10:33;92905.69;;;10.74
72236;BMP280;60146;52.498;13.462;2024-02-16T04:12:59;92961.41;;;10.60
72236;BMP280;60146;52.498;13.462;2024-02-16T04:15:25;92940.31;;;10.64
72236;BMP280;60146;52.498;13.462;2024-02-16T04:17:51;92954.75;;;10.59
72236;BMP280;60146;52.498;13.462;2024-02-16T04:20:16;92959.78;;;10.63
72236;BMP280;60146;52.498;13.462;2024-02-16T04:22:42;92975.22;;;10.61
72236;BMP280;60146;52.498;13.462;2024-02-16T04:25:08;92973.09;;;10.65
72236;BMP280;60146;52.498;13.462;2024-02-16T04:27:34;92966.22;;;10.67
72236;BMP280;60146;52.498;13.462;2024-02-16T04:30:00;92990.25;;;10.71
72236;BMP280;60146;52.498;13.462;2024-02-16T04:32:25;93020.44;;;10.72
72236;BMP280;60146;52.498;13.462;2024-02-16T04:34:51;93068.75;;;10.76
72236;BMP280;60146;52.498;13.462;2024-02-16T04:37:21;93129.28;;;10.75
72236;BMP280;60146;52.498;13.462;2024-02-16T04:39:46;93149.84;;;10.82
72236;BMP280;60146;52.498;13.462;2024-02-16T04:42:11;93206.63;;;10.81
72236;BMP280;60146;52.498;13.462;2024-02-16T04:44:37;93228.00;;;10.80
72236;BMP280;60146;52.498;13.462;2024-02-16T04:47:04;93266.91;;;10.73
72236;BMP280;60146;52.498;13.462;2024-02-16T04:49:29;93268.78;;;10.72
72236;BMP280;60146;52.498;13.462;2024-02-16T04:51:54;93253.56;;;10.71
72236;BMP280;60146;52.498;13.462;2024-02-16T04:54:20;93260.41;;;10.68
72236;BMP280;60146;52.498;13.462;2024-02-16T04:56:45;93229.50;;;10.67
72236;BMP280;60146;52.498;13.462;2024-02-16T04:59:10;93199.72;;;10.78
72236;BMP280;60146;52.498;13.462;2024-02-16T05:01:36;93257.22;;;10.78
72236;BMP280;60146;52.498;13.462;2024-02-16T05:04:01;93291.53;;;10.66
72236;BMP280;60146;52.498;13.462;2024-02-16T05:06:27;93276.75;;;10.63
72236;BMP280;60146;52.498;13.462;2024-02-16T05:08:53;93260.81;;;10.61
72236;BMP280;60146;52.498;13.462;2024-02-16T05:11:19;93243.94;;;10.62
72236;BMP280;60146;52.498;13.462;2024-02-16T05:13:44;93242.63;;;10.53
72236;BMP280;60146;52.498;13.462;2024-02-16T05:16:11;93215.78;;;10.52
72236;BMP280;60146;52.498;13.462;2024-02-16T05:18:37;93209.59;;;10.50
72236;BMP280;60146;52.498;13.462;2024-02-16T05:21:03;93186.25;;;10.46
72236;BMP280;60146;52.498;13.462;2024-02-16T05:23:28;93147.50;;;10.45
72236;BMP280;60146;52.498;13.462;2024-02-16T05:25:54;93119.03;;;10.47
72236;BMP280;60146;52.498;13.462;2024-02-16T05:28:19;93106.19;;;10.43
72236;BMP280;60146;52.498;13.462;2024-02-16T05:30:45;93083.38;;;10.44
72236;BMP280;60146;52.498;13.462;2024-02-16T05:33:11;93060.81;;;10.46
72236;BMP280;60146;52.498;13.462;2024-02-16T05:35:36;93061.09;;;10.48
72236;BMP280;60146;52.498;13.462;2024-02-16T05:38:05;93057.41;;;10.60
72236;BMP280;60146;52.498;13.462;2024-02-16T05:40:32;93105.16;;;10.60
72236;BMP280;60146;52.498;13.462;2024-02-16T05:43:09;93112.78;;;10.58
72236;BMP280;60146;52.498;13.462;2024-02-16T05:45:34;93144.03;;;10.53
72236;BMP280;60146;52.498;13.462;2024-02-16T05:48:00;93130.13;;;10.61
72236;BMP280;60146;52.498;13.462;2024-02-16T05:50:26;93167.56;;;10.53
72236;BMP280;60146;52.498;13.462;2024-02-16T05:52:51;93167.66;;;10.58
72236;BMP280;60146;52.498;13.462;2024-02-16T05:55:17;93170.88;;;10.54
72236;BMP280;60146;52.498;13.462;2024-02-16T05:57:44;93164.72;;;10.51
72236;BMP280;60146;52.498;13.462;2024-02-16T06:00:09;93181.59;;;10.55
72236;BMP280;60146;52.498;13.462;2024-02-16T06:02:36;93185.84;;;10.53
72236;BMP280;60146;52.498;13.462;2024-02-16T06:05:02;93194.19;;;10.52
72236;BMP280;60146;52.498;13.462;2024-02-16T06:07:29;93186.06;;;10.50
72236;BMP280;60146;52.498;13.462;2024-02-16T06:09:55;93185.53;;;10.46
72236;BMP280;60146;52.498;13.462;2024-02-16T06:12:21;93185.03;;;10.42
72236;BMP280;60146;52.498;13.462;2024-02-16T06:14:46;93134.22;;;10.43
72236;BMP280;60146;52.498;13.462;2024-02-16T06:17:13;93112.59;;;10.42
72236;BMP280;60146;52.498;13.462;2024-02-16T06:19:40;93113.63;;;10.50
72236;BMP280;60146;52.498;13.462;2024-02-16T06:22:06;93130.25;;;10.53
72236;BMP280;60146;52.498;13.462;2024-02-16T06:24:33;93123.41;;;10.55
72236;BMP280;60146;52.498;13.462;2024-02-16T06:26:58;93147.13;;;10.52
72236;BMP280;60146;52.498;13.462;2024-02-16T06:29:24;93164.38;;;10.44
72236;BMP280;60146;52.498;13.462;2024-02-16T06:31:49;93151.06;;;10.42
72236;BMP280;60146;52.498;13.462;2024-02-16T06:34:15;93124.66;;;10.40
72236;BMP280;60146;52.498;13.462;2024-02-16T06:36:41;93093.94;;;10.55
72236;BMP280;60146;52.498;13.462;2024-02-16T06:39:06;93135.25;;;10.51
72236;BMP280;60146;52.498;13.462;2024-02-16T06:41:31;93152.19;;;10.60
72236;BMP280;60146;52.498;13.462;2024-02-16T06:43:57;93208.91;;;10.55
72236;BMP280;60146;52.498;13.462;2024-02-16T06:46:22;93213.69;;;10.56
72236;BMP280;60146;52.498;13.462;2024-02-16T06:48:47;93242.78;;;10.63
72236;BMP280;60146;52.498;13.462;2024-02-16T06:51:13;93278.75;;;10.54
72236;BMP280;60146;52.498;13.462;2024-02-16T06:53:38;93268.56;;;10.56
72236;BMP280;60146;52.498;13.462;2024-02-16T06:56:04;93263.78;;;10.55
72236;BMP280;60146;52.498;13.462;2024-02-16T06:58:30;93239.56;;;10.54
72236;BMP280;60146;52.498;13.462;2024-02-16T07:00:55;93225.59;;;10.57
72236;BMP280;60146;52.498;13.462;2024-02-16T07:03:20;93217.88;;;10.68
72236;BMP280;60146;52.498;13.462;2024-02-16T07:05:46;93255.44;;;10.70
72236;BMP280;60146;52.498;13.462;2024-02-16T07:08:11;93284.34;;;10.81
72236;BMP280;60146;52.498;13.462;2024-02-16T07:10:36;93386.09;;;10.84
72236;BMP280;60146;52.498;13.462;2024-02-16T07:13:02;93449.88;;;10.87
72236;BMP280;60146;52.498;13.462;2024-02-16T07:15:27;93467.25;;;10.90
72236;BMP280;60146;52.498;13.462;2024-02-16T07:17:53;93507.19;;;10.90
72236;BMP280;60146;52.498;13.462;2024-02-16T07:20:19;93540.75;;;10.92
72236;BMP280;60146;52.498;13.462;2024-02-16T07:22:44;93545.63;;;10.98
72236;BMP280;60146;52.498;13.462;2024-02-16T07:25:13;93605.88;;;11.04
72236;BMP280;60146;52.498;13.462;2024-02-16T07:27:38;93606.22;;;11.11
72236;BMP280;60146;52.498;13.462;2024-02-16T07:30:04;93670.81;;;11.19
72236;BMP280;60146;52.498;13.462;2024-02-16T07:32:30;93711.63;;;11.26
72236;BMP280;60146;52.498;13.462;2024-02-16T07:34:55;93777.16;;;11.31
72236;BMP280;60146;52.498;13.462;2024-02-16T07:37:21;93790.50;;;11.47
72236;BMP280;60146;52.498;13.462;2024-02-16T07:39:46;93861.34;;;11.67
72236;BMP280;60146;52.498;13.462;2024-02-16T07:42:11;93976.75;;;11.63
72236;BMP280;60146;52.498;13.462;2024-02-16T07:44:38;94076.59;;;11.79
72236;BMP280;60146;52.498;13.462;2024-02-16T07:47:04;94177.84;;;11.91
72236;BMP280;60146;52.498;13.462;2024-02-16T07:49:30;94275.88;;;12.08
72236;BMP280;60146;52.498;13.462;2024-02-16T07:51:55;94364.25;;;12.16
72236;BMP280;60146;52.498;13.462;2024-02-16T07:54:21;94496.00;;;12.60
72236;BMP280;60146;52.498;13.462;2024-02-16T07:56:46;94723.88;;;12.97
72236;BMP280;60146;52.498;13.462;2024-02-16T07:59:11;94953.44;;;13.52
72236;BMP280;60146;52.498;13.462;2024-02-16T08:01:37;95316.28;;;13.99
72236;BMP280;60146;52.498;13.462;2024-02-16T08:04:02;95691.72;;;14.56
72236;BMP280;60146;52.498;13.462;2024-02-16T08:06:28;96020.84;;;14.96
72236;BMP280;60146;52.498;13.462;2024-02-16T08:08:54;96414.88;;;15.75
72236;BMP280;60146;52.498;13.462;2024-02-16T08:11:19;96622.19;;;15.95
72236;BMP280;60146;52.498;13.462;2024-02-16T08:13:45;96670.09;;;15.94
72236;BMP280;60146;52.498;13.462;2024-02-16T08:16:10;96699.59;;;16.24
72236;BMP280;60146;52.498;13.462;2024-02-16T08:18:36;96941.34;;;16.82
72236;BMP280;60146;52.498;13.462;2024-02-16T08:21:01;97228.00;;;17.03
72236;BMP280;60146;52.498;13.462;2024-02-16T08:23:27;97217.09;;;16.79
72236;BMP280;60146;52.498;13.462;2024-02-16T08:25:52;97124.19;;;16.61
72236;BMP280;60146;52.498;13.462;2024-02-16T08:28:18;97211.81;;;17.01
72236;BMP280;60146;52.498;13.462;2024-02-16T08:30:43;97262.50;;;16.77
72236;BMP280;60146;52.498;13.462;2024-02-16T08:33:10;97232.53;;;16.84
72236;BMP280;60146;52.498;13.462;2024-02-16T08:35:35;97399.22;;;17.03
72236;BMP280;60146;52.498;13.462;2024-02-16T08:38:00;97576.84;;;17.53
72236;BMP280;60146;52.498;13.462;2024-02-16T08:40:26;97862.94;;;18.08
72236;BMP280;60146;52.498;13.462;2024-02-16T08:42:51;97929.25;;;18.04
72236;BMP280;60146;52.498;13.462;2024-02-16T08:45:16;97762.81;;;17.34
72236;BMP280;60146;52.498;13.462;2024-02-16T08:47:43;97589.91;;;16.86
72236;BMP280;60146;52.498;13.462;2024-02-16T08:50:09;97463.53;;;16.70
72236;BMP280;60146;52.498;13.462;2024-02-16T08:52:36;97322.53;;;16.29
72236;BMP280;60146;52.498;13.462;2024-02-16T08:55:01;97159.41;;;16.10
72236;BMP280;60146;52.498;13.462;2024-02-16T08:57:27;97149.69;;;16.04
72236;BMP280;60146;52.498;13.462;2024-02-16T08:59:53;97163.03;;;16.19
72236;BMP280;60146;52.498;13.462;2024-02-16T09:02:18;97190.47;;;16.25
72236;BMP280;60146;52.498;13.462;2024-02-16T09:04:45;97092.28;;;16.08
72236;BMP280;60146;52.498;13.462;2024-02-16T09:07:10;97011.25;;;15.82
72236;BMP280;60146;52.498;13.462;2024-02-16T09:09:36;96894.22;;;15.47
72236;BMP280;60146;52.498;13.462;2024-02-16T09:12:01;96810.31;;;15.20
72236;BMP280;60146;52.498;13.462;2024-02-16T09:14:27;96731.56;;;15.22
72236;BMP280;60146;52.498;13.462;2024-02-16T09:16:52;96693.56;;;15.00
72236;BMP280;60146;52.498;13.462;2024-02-16T09:19:17;96659.31;;;15.00
72236;BMP280;60146;52.498;13.462;2024-02-16T09:21:43;96637.25;;;15.10
72236;BMP280;60146;52.498;13.462;2024-02-16T09:24:08;96666.19;;;15.33
72236;BMP280;60146;52.498;13.462;2024-02-16T09:26:36;96767.78;;;15.56
72236;BMP280;60146;52.498;13.462;2024-02-16T09:29:02;96794.06;;;15.63
72236;BMP280;60146;52.498;13.462;2024-02-16T09:31:27;96821.88;;;15.67
72236;BMP280;60146;52.498;13.462;2024-02-16T09:33:53;96837.13;;;15.79
72236;BMP280;60146;52.498;13.462;2024-02-16T09:36:18;96821.81;;;15.71
72236;BMP280;60146;52.498;13.462;2024-02-16T09:38:44;96849.69;;;16.10
72236;BMP280;60146;52.498;13.462;2024-02-16T09:41:09;96993.53;;;16.43
72236;BMP280;60146;52.498;13.462;2024-02-16T09:43:34;97169.97;;;16.96
72236;BMP280;60146;52.498;13.462;2024-02-16T09:46:00;97427.47;;;17.73
72236;BMP280;60146;52.498;13.462;2024-02-16T09:48:27;98051.41;;;18.53
72236;BMP280;60146;52.498;13.462;2024-02-16T09:50:57;97979.78;;;18.23
72236;BMP280;60146;52.498;13.462;2024-02-16T09:53:27;97811.03;;;17.81
72236;BMP280;60146;52.498;13.462;2024-02-16T09:55:53;97655.53;;;17.26
72236;BMP280;60146;52.498;13.462;2024-02-16T09:58:19;97480.91;;;16.71
72236;BMP280;60146;52.498;13.462;2024-02-16T10:00:51;97429.03;;;16.81
72236;BMP280;60146;52.498;13.462;2024-02-16T10:03:26;97590.69;;;16.83
72236;BMP280;60146;52.498;13.462;2024-02-16T10:06:03;97545.16;;;16.68
72236;BMP280;60146;52.498;13.462;2024-02-16T10:08:28;97432.25;;;16.36
72236;BMP280;60146;52.498;13.462;2024-02-16T10:11:00;97524.72;;;16.40
72236;BMP280;60146;52.498;13.462;2024-02-16T10:13:26;97522.63;;;16.21
72236;BMP280;60146;52.498;13.462;2024-02-16T10:15:51;97619.44;;;16.41
72236;BMP280;60146;52.498;13.462;2024-02-16T10:18:19;97580.31;;;16.33
72236;BMP280;60146;52.498;13.462;2024-02-16T10:20:44;97603.63;;;16.38
72236;BMP280;60146;52.498;13.462;2024-02-16T10:23:11;97623.22;;;16.40
72236;BMP280;60146;52.498;13.462;2024-02-16T10:25:38;97571.00;;;16.18
72236;BMP280;60146;52.498;13.462;2024-02-16T10:28:12;97597.75;;;16.20
72236;BMP280;60146;52.498;13.462;2024-02-16T10:30:43;97633.09;;;16.36
72236;BMP280;60146;52.498;13.462;2024-02-16T10:33:10;97748.53;;;16.46
72236;BMP280;60146;52.498;13.462;2024-02-16T10:35:37;97700.81;;;16.17
72236;BMP280;60146;52.498;13.462;2024-02-16T10:38:03;97656.63;;;16.21
72236;BMP280;60146;52.498;13.462;2024-02-16T10:40:32;97665.59;;;16.33
72236;BMP280;60146;52.498;13.462;2024-02-16T10:43:03;97695.03;;;16.32
72236;BMP280;60146;52.498;13.462;2024-02-16T10:45:29;97695.09;;;16.25
72236;BMP280;60146;52.498;13.462;2024-02-16T10:47:56;97724.44;;;16.37
72236;BMP280;60146;52.498;13.462;2024-02-16T10:50:21;97750.09;;;16.40
72236;BMP280;60146;52.498;13.462;2024-02-16T10:52:49;97727.47;;;16.36
72236;BMP280;60146;52.498;13.462;2024-02-16T10:55:15;97758.50;;;16.25
72236;BMP280;60146;52.498;13.462;2024-02-16T10:57:41;97760.09;;;16.12
72236;BMP280;60146;52.498;13.462;2024-02-16T11:00:09;97751.41;;;16.15
72236;BMP280;60146;52.498;13.462;2024-02-16T11:03:15;97736.00;;;16.07
72236;BMP280;60146;52.498;13.462;2024-02-16T11:05:41;97738.19;;;16.19
72236;BMP280;60146;52.498;13.462;2024-02-16T11:08:17;97677.09;;;16.13
72236;BMP280;60146;52.498;13.462;2024-02-16T11:13:28;97694.63;;;16.37
72236;BMP280;60146;52.498;13.462;2024-02-16T11:18:30;97916.41;;;16.78
72236;BMP280;60146;52.498;13.462;2024-02-16T11:21:00;97931.19;;;16.72
72236;BMP280;60146;52.498;13.462;2024-02-16T11:23:29;98000.88;;;17.05
72236;BMP280;60146;52.498;13.462;2024-02-16T11:26:02;98076.16;;;16.97
72236;BMP280;60146;52.498;13.462;2024-02-16T11:28:34;98048.13;;;17.03
72236;BMP280;60146;52.498;13.462;2024-02-16T11:31:00;98118.28;;;17.38
72236;BMP280;60146;52.498;13.462;2024-02-16T11:33:26;98242.53;;;17.72
72236;BMP280;60146;52.498;13.462;2024-02-16T11:36:05;98357.91;;;17.90
72236;BMP280;60146;52.498;13.462;2024-02-16T11:38:33;98540.72;;;18.21
72236;BMP280;60146;52.498;13.462;2024-02-16T11:41:04;98595.19;;;18.53
72236;BMP280;60146;52.498;13.462;2024-02-16T11:43:31;98794.88;;;18.94
72236;BMP280;60146;52.498;13.462;2024-02-16T11:46:10;99215.50;;;19.83
72236;BMP280;60146;52.498;13.462;2024-02-16T11:48:36;99809.09;;;20.87
72236;BMP280;60146;52.498;13.462;2024-02-16T11:51:03;100196.75;;;21.74
72236;BMP280;60146;52.498;13.462;2024-02-16T11:53:29;100407.53;;;22.42
72236;BMP280;60146;52.498;13.462;2024-02-16T11:56:04;100524.69;;;23.77
72236;BMP280;60146;52.498;13.462;2024-02-16T11:58:32;100709.41;;;25.36
72236;BMP280;60146;52.498;13.462;2024-02-16T12:00:58;100820.31;;;26.22
72236;BMP280;60146;52.498;13.462;2024-02-16T12:03:28;100882.94;;;27.47
72236;BMP280;60146;52.498;13.462;2024-02-16T12:05:58;100909.50;;;28.01
72236;BMP280;60146;52.498;13.462;2024-02-16T12:08:31;100923.78;;;27.95
72236;BMP280;60146;52.498;13.462;2024-02-16T12:10:57;100930.72;;;27.96
72236;BMP280;60146;52.498;13.462;2024-02-16T12:13:22;100926.69;;;26.50
72236;BMP280;60146;52.498;13.462;2024-02-16T12:15:51;100927.22;;;25.32
72236;BMP280;60146;52.498;13.462;2024-02-16T12:18:25;100931.44;;;23.89
72236;BMP280;60146;52.498;13.462;2024-02-16T12:21:24;100922.97;;;22.72
72236;BMP280;60146;52.498;13.462;2024-02-16T12:23:44;100912.09;;;21.10
72236;BMP280;60146;52.498;13.462;2024-02-16T12:26:10;100863.31;;;20.76
72236;BMP280;60146;52.498;13.462;2024-02-16T12:28:35;100828.41;;;20.36
72236;BMP280;60146;52.498;13.462;2024-02-16T12:31:02;100834.19;;;20.23
72236;BMP280;60146;52.498;13.462;2024-02-16T12:33:27;100837.84;;;20.63
72236;BMP280;60146;52.498;13.462;2024-02-16T12:35:53;100845.09;;;21.12
72236;BMP280;60146;52.498;13.462;2024-02-16T12:38:19;100853.16;;;22.08
72236;BMP280;60146;52.498;13.462;2024-02-16T12:40:47;100881.06;;;23.33
72236;BMP280;60146;52.498;13.462;2024-02-16T12:43:13;100914.81;;;24.44
72236;BMP280;60146;52.498;13.462;2024-02-16T12:45:40;100891.00;;;24.88
72236;BMP280;60146;52.498;13.462;2024-02-16T12:48:05;100893.56;;;24.78
72236;BMP280;60146;52.498;13.462;2024-02-16T12:50:31;100901.94;;;24.21
72236;BMP280;60146;52.498;13.462;2024-02-16T12:52:57;100902.41;;;23.91
72236;BMP280;60146;52.498;13.462;2024-02-16T12:55:23;100905.28;;;23.15
72236;BMP280;60146;52.498;13.462;2024-02-16T12:57:49;100903.25;;;23.08
72236;BMP280;60146;52.498;13.462;2024-02-16T13:00:15;100903.84;;;23.85
72236;BMP280;60146;52.498;13.462;2024-02-16T13:02:40;100895.84;;;23.53
72236;BMP280;60146;52.498;13.462;2024-02-16T13:05:06;100893.75;;;22.38
72236;BMP280;60146;52.498;13.462;2024-02-16T13:07:31;100873.66;;;21.82
72236;BMP280;60146;52.498;13.462;2024-02-16T13:09:56;100875.69;;;21.51
72236;BMP280;60146;52.498;13.462;2024-02-16T13:12:22;100868.78;;;21.32
72236;BMP280;60146;52.498;13.462;2024-02-16T13:14:49;100857.44;;;21.19
72236;BMP280;60146;52.498;13.462;2024-02-16T13:17:14;100838.91;;;20.59
72236;BMP280;60146;52.498;13.462;2024-02-16T13:19:40;100791.47;;;20.04
72236;BMP280;60146;52.498;13.462;2024-02-16T13:22:05;100748.31;;;19.69
72236;BMP280;60146;52.498;13.462;2024-02-16T13:24:30;100666.81;;;19.46
72236;BMP280;60146;52.498;13.462;2024-02-16T13:26:56;100610.06;;;19.27
72236;BMP280;60146;52.498;13.462;2024-02-16T13:29:21;100555.63;;;18.94
72236;BMP280;60146;52.498;13.462;2024-02-16T13:31:47;100482.19;;;18.86
72236;BMP280;60146;52.498;13.462;2024-02-16T13:34:12;100459.75;;;18.84
72236;BMP280;60146;52.498;13.462;2024-02-16T13:36:40;100454.97;;;18.89
72236;BMP280;60146;52.498;13.462;2024-02-16T13:39:06;100430.03;;;18.78
72236;BMP280;60146;52.498;13.462;2024-02-16T13:41:32;100422.47;;;18.65
72236;BMP280;60146;52.498;13.462;2024-02-16T13:43:58;100360.69;;;18.23
72236;BMP280;60146;52.498;13.462;2024-02-16T13:46:23;100314.34;;;18.05
72236;BMP280;60146;52.498;13.462;2024-02-16T13:48:48;100284.56;;;18.12
72236;BMP280;60146;52.498;13.462;2024-02-16T13:51:14;100289.56;;;17.86
72236;BMP280;60146;52.498;13.462;2024-02-16T13:53:39;100244.16;;;17.88